createdAt,value
2022-11-19T00:01:25.559Z,99.90
2022-11-19T00:03:53.388Z,99.90
2022-11-19T00:06:25.569Z,99.90
2022-11-19T00:08:53.004Z,99.90
2022-11-19T00:11:40.701Z,99.90
2022-11-19T00:14:09.227Z,99.90
2022-11-19T00:16:36.590Z,99.90
2022-11-19T00:19:04.425Z,99.90
2022-11-19T00:21:31.487Z,99.90
2022-11-19T00:23:58.723Z,99.90
2022-11-19T00:26:25.813Z,99.90
2022-11-19T00:28:52.823Z,99.90
2022-11-19T00:31:19.880Z,99.90
2022-11-19T00:33:47.066Z,99.90
2022-11-19T00:36:15.540Z,99.90
2022-11-19T00:38:43.429Z,99.90
2022-11-19T00:41:11.003Z,99.90
2022-11-19T00:43:47.291Z,99.90
2022-11-19T00:46:32.505Z,99.90
2022-11-19T00:49:00.257Z,99.90
2022-11-19T00:51:30.627Z,99.90
2022-11-19T00:53:57.804Z,99.90
2022-11-19T00:56:27.004Z,99.90
2022-11-19T00:58:54.600Z,99.90
2022-11-19T01:01:23.716Z,99.90
2022-11-19T01:03:51.100Z,99.90
2022-11-19T01:06:20.860Z,99.90
2022-11-19T01:08:49.399Z,99.90
2022-11-19T01:11:19.786Z,99.90
2022-11-19T01:13:47.228Z,99.90
2022-11-19T01:16:20.081Z,99.90
2022-11-19T01:18:48.915Z,99.90
2022-11-19T01:21:17.534Z,99.90
2022-11-19T01:23:45.058Z,99.90
2022-11-19T01:26:13.148Z,99.90
2022-11-19T01:28:40.866Z,99.90
2022-11-19T01:31:09.766Z,99.90
2022-11-19T01:33:37.017Z,99.90
2022-11-19T01:36:11.119Z,99.90
2022-11-19T01:38:38.419Z,99.90
2022-11-19T01:41:06.209Z,99.90
2022-11-19T01:43:45.690Z,99.90
2022-11-19T01:46:15.605Z,99.90
2022-11-19T01:49:08.369Z,99.90
2022-11-19T01:51:57.490Z,99.90
2022-11-19T01:54:39.320Z,99.90
2022-11-19T01:57:13.394Z,99.90
2022-11-19T01:59:42.186Z,99.90
2022-11-19T02:02:09.197Z,99.90
2022-11-19T02:04:36.785Z,99.90
2022-11-19T02:07:04.757Z,99.90
2022-11-19T02:09:33.418Z,99.90
2022-11-19T02:12:16.105Z,99.90
2022-11-19T02:15:35.270Z,99.90
2022-11-19T02:18:36.413Z,99.90
2022-11-19T02:21:33.761Z,99.90
2022-11-19T02:24:15.316Z,99.90
2022-11-19T02:27:31.448Z,99.90
2022-11-19T02:30:18.770Z,99.90
2022-11-19T02:33:14.607Z,99.90
2022-11-19T02:35:48.596Z,99.90
2022-11-19T02:38:45.860Z,99.90
2022-11-19T02:41:34.706Z,99.90
2022-11-19T02:44:45.249Z,99.90
2022-11-19T02:47:25.981Z,99.90
2022-11-19T02:49:57.784Z,99.90
2022-11-19T02:52:25.170Z,99.90
2022-11-19T02:54:52.263Z,99.90
2022-11-19T02:57:19.418Z,99.90
2022-11-19T03:00:16.726Z,99.90
2022-11-19T03:03:15.291Z,99.90
2022-11-19T03:05:48.698Z,99.90
2022-11-19T03:08:15.941Z,99.90
2022-11-19T03:10:55.113Z,99.90
2022-11-19T03:13:45.171Z,99.90
2022-11-19T03:16:39.127Z,99.90
2022-11-19T03:19:55.766Z,99.90
2022-11-19T03:22:30.692Z,99.90
2022-11-19T03:25:12.423Z,99.90
2022-11-19T03:27:43.683Z,99.90
2022-11-19T03:30:12.801Z,99.90
2022-11-19T03:33:07.207Z,99.90
2022-11-19T03:35:45.222Z,99.90
2022-11-19T03:38:18.964Z,99.90
2022-11-19T03:40:48.200Z,99.90
2022-11-19T03:43:20.117Z,99.90
2022-11-19T03:45:48.994Z,99.90
2022-11-19T03:48:18.381Z,99.90
2022-11-19T03:50:53.771Z,99.90
2022-11-19T03:53:22.421Z,99.90
2022-11-19T03:56:10.038Z,99.90
2022-11-19T03:58:39.623Z,99.90
2022-11-19T04:01:07.215Z,99.90
2022-11-19T04:03:34.469Z,99.90
2022-11-19T04:06:01.536Z,99.90
2022-11-19T04:08:28.645Z,99.90
2022-11-19T04:10:55.837Z,99.90
2022-11-19T04:13:22.895Z,99.90
2022-11-19T04:15:50.002Z,99.90
2022-11-19T04:18:17.085Z,99.90
2022-11-19T04:20:47.270Z,99.90
2022-11-19T04:23:14.348Z,99.90
2022-11-19T04:25:46.303Z,99.90
2022-11-19T04:28:13.513Z,99.90
2022-11-19T04:30:40.567Z,99.90
2022-11-19T04:33:07.582Z,99.90
2022-11-19T04:35:34.585Z,99.90
2022-11-19T04:38:01.660Z,99.90
2022-11-19T04:40:28.747Z,99.90
2022-11-19T04:42:55.749Z,99.90
2022-11-19T04:45:22.784Z,99.90
2022-11-19T04:47:49.806Z,99.90
2022-11-19T04:50:16.931Z,99.90
2022-11-19T04:52:44.138Z,99.90
2022-11-19T04:55:11.194Z,99.90
2022-11-19T04:57:38.394Z,99.90
2022-11-19T05:00:06.556Z,99.90
2022-11-19T05:02:34.075Z,99.90
2022-11-19T05:05:01.179Z,99.90
2022-11-19T05:07:28.243Z,99.90
2022-11-19T05:09:55.277Z,99.90
2022-11-19T05:12:22.484Z,99.90
2022-11-19T05:14:49.508Z,99.90
2022-11-19T05:17:16.606Z,99.90
2022-11-19T05:19:43.626Z,99.90
2022-11-19T05:22:10.890Z,99.90
2022-11-19T05:24:37.950Z,99.90
2022-11-19T05:27:05.188Z,99.90
2022-11-19T05:29:32.209Z,99.90
2022-11-19T05:31:59.377Z,99.90
2022-11-19T05:34:26.429Z,99.90
2022-11-19T05:36:53.439Z,99.90
2022-11-19T05:39:22.376Z,99.90
2022-11-19T05:41:49.957Z,99.90
2022-11-19T05:44:17.413Z,99.90
2022-11-19T05:46:44.505Z,99.90
2022-11-19T05:49:11.966Z,99.90
2022-11-19T05:51:39.051Z,99.90
2022-11-19T05:54:06.330Z,99.90
2022-11-19T05:56:33.464Z,99.90
2022-11-19T05:59:00.492Z,99.90
2022-11-19T06:01:28.787Z,99.90
2022-11-19T06:03:56.600Z,99.90
2022-11-19T06:06:23.933Z,99.90
2022-11-19T06:08:51.014Z,99.90
2022-11-19T06:11:36.824Z,99.90
2022-11-19T06:14:04.290Z,99.90
2022-11-19T06:16:31.310Z,99.90
2022-11-19T06:18:58.312Z,99.90
2022-11-19T06:21:25.355Z,99.90
2022-11-19T06:23:52.363Z,99.90
2022-11-19T06:26:23.745Z,99.90
2022-11-19T06:28:51.129Z,99.90
2022-11-19T06:31:18.373Z,99.90
2022-11-19T06:33:45.821Z,99.90
2022-11-19T06:36:12.838Z,99.90
2022-11-19T06:38:40.049Z,99.90
2022-11-19T06:41:07.139Z,99.90
2022-11-19T06:43:34.197Z,99.90
2022-11-19T06:46:01.208Z,99.90
2022-11-19T06:48:28.273Z,99.90
2022-11-19T06:50:55.399Z,99.90
2022-11-19T06:53:22.547Z,99.90
2022-11-19T06:55:55.742Z,99.90
2022-11-19T06:58:22.875Z,99.90
2022-11-19T07:00:49.936Z,99.90
2022-11-19T07:03:16.999Z,99.90
2022-11-19T07:05:44.435Z,99.90
2022-11-19T07:08:11.407Z,99.90
2022-11-19T07:10:38.495Z,99.90
2022-11-19T07:13:05.570Z,99.90
2022-11-19T07:15:32.754Z,99.90
2022-11-19T07:18:01.517Z,99.90
2022-11-19T07:20:28.892Z,99.90
2022-11-19T07:22:59.163Z,99.90
2022-11-19T07:25:27.379Z,99.90
2022-11-19T07:27:54.751Z,99.90
2022-11-19T07:30:21.828Z,99.90
2022-11-19T07:32:48.884Z,99.90
2022-11-19T07:35:16.091Z,99.90
2022-11-19T07:37:43.096Z,99.90
2022-11-19T07:40:11.282Z,99.90
2022-11-19T07:42:50.368Z,99.90
2022-11-19T07:45:19.387Z,99.90
2022-11-19T07:47:47.031Z,99.90
2022-11-19T07:50:14.387Z,99.90
2022-11-19T07:52:41.568Z,99.90
2022-11-19T07:55:09.344Z,99.90
2022-11-19T07:57:36.504Z,99.90
2022-11-19T08:00:05.834Z,99.90
2022-11-19T08:02:39.668Z,99.90
2022-11-19T08:05:07.079Z,99.90
2022-11-19T08:07:34.150Z,99.90
2022-11-19T08:10:01.193Z,99.90
2022-11-19T08:12:29.341Z,99.90
2022-11-19T08:14:56.710Z,99.90
2022-11-19T08:17:42.479Z,99.90
2022-11-19T08:20:10.588Z,99.90
2022-11-19T08:22:38.808Z,99.90
2022-11-19T08:25:06.453Z,99.90
2022-11-19T08:27:33.594Z,99.90
2022-11-19T08:30:00.750Z,99.90
2022-11-19T08:32:27.786Z,99.90
2022-11-19T08:34:54.829Z,99.90
2022-11-19T08:37:21.930Z,99.90
2022-11-19T08:39:49.057Z,99.90
2022-11-19T08:42:34.580Z,99.90
2022-11-19T08:45:01.976Z,99.90
2022-11-19T08:47:29.053Z,99.90
2022-11-19T08:49:56.206Z,99.90
2022-11-19T08:52:23.326Z,99.90
2022-11-19T08:54:50.384Z,99.90
2022-11-19T08:57:17.448Z,99.90
2022-11-19T08:59:44.596Z,99.90
2022-11-19T09:02:11.681Z,99.90
2022-11-19T09:04:38.936Z,99.90
2022-11-19T09:07:05.977Z,99.90
2022-11-19T09:09:33.242Z,99.90
2022-11-19T09:12:00.357Z,99.90
2022-11-19T09:14:27.587Z,99.90
2022-11-19T09:16:54.726Z,99.90
2022-11-19T09:19:21.751Z,99.90
2022-11-19T09:21:49.579Z,99.90
2022-11-19T09:24:16.723Z,99.90
2022-11-19T09:26:46.569Z,99.90
2022-11-19T09:29:17.474Z,99.90
2022-11-19T09:31:44.454Z,99.90
2022-11-19T09:34:11.500Z,99.90
2022-11-19T09:36:38.644Z,99.90
2022-11-19T09:39:05.683Z,99.90
2022-11-19T09:42:15.289Z,96.10
2022-11-19T09:45:20.032Z,94.40
2022-11-19T09:48:20.927Z,99.20
2022-11-19T09:50:59.551Z,99.90
2022-11-19T09:53:32.630Z,99.90
2022-11-19T09:56:00.722Z,99.90
2022-11-19T09:58:36.774Z,99.90
2022-11-19T10:01:04.722Z,99.90
2022-11-19T10:03:33.862Z,99.90
2022-11-19T10:06:36.451Z,99.90
2022-11-19T10:09:48.724Z,90.30
2022-11-19T10:13:12.172Z,87.20
2022-11-19T10:16:26.196Z,91.80
2022-11-19T10:19:26.703Z,91.60
2022-11-19T10:45:31.544Z,42.50
2022-11-19T10:48:38.594Z,42.40
2022-11-19T10:51:21.239Z,41.80
2022-11-19T10:53:49.433Z,39.00
2022-11-19T10:56:21.392Z,43.80
2022-11-19T10:59:06.920Z,42.10
2022-11-19T11:01:39.049Z,55.00
2022-11-19T11:04:23.746Z,45.60
2022-11-19T11:07:05.436Z,44.40
2022-11-19T11:09:38.629Z,51.70
2022-11-19T11:12:50.916Z,51.40
2022-11-19T11:15:27.629Z,43.90
2022-11-19T11:18:10.602Z,39.00
2022-11-19T11:20:40.316Z,43.70
2022-11-19T11:23:22.492Z,48.50
2022-11-19T11:26:12.057Z,40.50
2022-11-19T11:29:03.046Z,36.70
2022-11-19T11:31:39.552Z,39.30
2022-11-19T11:34:27.135Z,38.80
2022-11-19T11:36:55.542Z,35.30
2022-11-19T11:39:31.372Z,43.60
2022-11-19T11:42:06.233Z,49.60
2022-11-19T11:44:36.934Z,47.40
2022-11-19T11:47:23.688Z,43.60
2022-11-19T11:50:25.548Z,46.20
2022-11-19T11:52:55.124Z,41.10
2022-11-19T11:55:42.416Z,43.70
2022-11-19T11:58:34.743Z,38.90
2022-11-19T12:01:15.813Z,41.10
2022-11-19T12:04:01.563Z,41.40
2022-11-19T12:06:41.760Z,49.60
2022-11-19T12:09:34.529Z,49.10
2022-11-19T12:12:28.151Z,43.70
2022-11-19T12:15:24.756Z,48.80
2022-11-19T12:18:26.990Z,39.70
2022-11-19T12:21:11.495Z,39.80
2022-11-19T12:23:58.736Z,41.50
2022-11-19T12:26:54.367Z,43.20
2022-11-19T12:29:35.499Z,39.10
2022-11-19T12:33:05.651Z,39.00
2022-11-19T13:14:46.760Z,71.90
2022-11-19T13:21:09.568Z,74.80
2022-11-19T13:23:46.031Z,75.70
2022-11-19T13:26:32.139Z,78.70
2022-11-19T13:29:39.909Z,80.50
2022-11-19T13:32:20.821Z,77.80
2022-11-19T13:35:10.498Z,82.70
2022-11-19T13:37:48.377Z,81.70
2022-11-19T13:40:51.029Z,85.90
2022-11-19T13:43:38.872Z,81.50
2022-11-19T13:46:41.011Z,85.30
2022-11-19T13:49:34.469Z,81.90
2022-11-19T13:52:06.147Z,83.80
2022-11-19T13:54:39.929Z,83.90
2022-11-19T13:57:09.609Z,79.60
2022-11-19T13:59:50.161Z,83.60
2022-11-19T14:03:05.115Z,84.40
2022-11-19T14:06:19.979Z,85.10
2022-11-19T14:09:37.111Z,86.70
2022-11-19T14:12:40.723Z,84.60
2022-11-19T14:16:05.739Z,85.30
2022-11-19T14:19:05.259Z,87.80
2022-11-19T14:22:04.620Z,90.00
2022-11-19T14:25:10.828Z,86.90
2022-11-19T14:27:38.140Z,87.40
2022-11-19T14:30:13.785Z,86.50
2022-11-19T14:32:47.203Z,89.60
2022-11-19T14:35:39.622Z,90.00
2022-11-19T14:38:33.666Z,90.00
2022-11-19T14:41:06.310Z,90.00
2022-11-19T14:44:08.847Z,89.90
2022-11-19T14:46:47.989Z,90.70
2022-11-19T14:49:35.550Z,89.30
2022-11-19T14:52:03.373Z,88.00
2022-11-19T14:54:39.728Z,88.80
2022-11-19T14:57:35.866Z,88.60
2022-11-19T15:00:35.411Z,90.90
2022-11-19T15:03:06.617Z,90.80
2022-11-19T15:05:36.521Z,90.80
2022-11-19T15:08:46.296Z,90.80
2022-11-19T15:11:15.155Z,92.90
2022-11-19T15:14:08.998Z,91.50
2022-11-19T15:16:37.228Z,93.40
2022-11-19T15:19:57.993Z,94.20
2022-11-19T15:23:19.010Z,94.90
2022-11-19T15:55:19.620Z,98.50
2022-11-19T15:57:51.252Z,99.10
2022-11-19T16:00:22.428Z,99.70
2022-11-19T16:02:51.487Z,99.90
2022-11-19T16:05:36.584Z,99.90
2022-11-19T16:08:14.899Z,99.90
2022-11-19T16:10:46.478Z,99.90
2022-11-19T16:13:43.850Z,99.90
2022-11-19T16:16:42.764Z,99.90
2022-11-19T16:19:12.798Z,99.90
2022-11-19T16:21:41.748Z,99.90
2022-11-19T16:24:32.598Z,99.90
2022-11-19T16:27:02.150Z,99.90
2022-11-19T16:29:32.975Z,99.90
2022-11-19T16:32:00.245Z,99.90
2022-11-19T16:34:31.737Z,99.90
2022-11-19T16:36:59.531Z,99.90
2022-11-19T16:39:29.241Z,99.90
2022-11-19T16:42:17.230Z,99.90
2022-11-19T16:45:16.899Z,99.90
2022-11-19T16:47:55.664Z,99.90
2022-11-19T16:50:36.499Z,99.90
2022-11-19T16:53:06.324Z,99.90
2022-11-19T16:55:43.089Z,99.90
2022-11-19T16:58:25.511Z,99.90
2022-11-19T17:00:55.864Z,99.90
2022-11-19T17:03:35.252Z,99.90
2022-11-19T17:06:04.604Z,99.90
2022-11-19T17:08:34.458Z,99.90
2022-11-19T17:11:56.891Z,99.90
2022-11-19T17:14:51.992Z,99.90
2022-11-19T17:17:40.236Z,99.90
2022-11-19T17:20:49.803Z,99.90
2022-11-19T17:23:22.082Z,99.90
2022-11-19T17:26:15.920Z,99.90
2022-11-19T17:28:47.651Z,99.90
2022-11-19T17:31:26.479Z,99.90
2022-11-19T17:34:26.560Z,99.90
2022-11-19T17:36:53.625Z,99.90
2022-11-19T17:39:25.280Z,99.90
2022-11-19T17:42:14.881Z,99.90
2022-11-19T17:44:42.375Z,99.90
2022-11-19T17:47:22.684Z,99.90
2022-11-19T17:49:50.750Z,99.90
2022-11-19T17:52:22.839Z,99.90
2022-11-19T17:54:51.741Z,99.90
2022-11-19T17:57:18.814Z,99.90
2022-11-19T17:59:45.954Z,99.90
2022-11-19T18:02:18.853Z,99.90
2022-11-19T18:04:47.180Z,99.90
2022-11-19T18:07:15.156Z,99.90
2022-11-19T18:09:42.711Z,99.90
2022-11-19T18:12:18.182Z,99.90
2022-11-19T18:14:46.258Z,99.90
2022-11-19T18:17:14.680Z,99.90
2022-11-19T18:19:42.074Z,99.90
2022-11-19T18:22:18.469Z,99.90
2022-11-19T18:24:50.222Z,99.90
2022-11-19T18:27:17.508Z,99.90
2022-11-19T18:29:44.681Z,99.90
2022-11-19T18:32:12.641Z,99.90
2022-11-19T18:34:39.719Z,99.90
2022-11-19T18:37:06.783Z,99.90
2022-11-19T18:39:34.044Z,99.90
2022-11-19T18:42:01.129Z,99.90
2022-11-19T18:44:34.548Z,99.90
2022-11-19T18:47:11.009Z,99.90
2022-11-19T18:49:38.324Z,99.90
2022-11-19T18:52:12.948Z,99.90
2022-11-19T18:54:40.287Z,99.90
2022-11-19T18:57:07.363Z,99.90
2022-11-19T18:59:34.474Z,99.90
2022-11-19T19:02:01.780Z,99.90
2022-11-19T19:04:28.895Z,99.90
2022-11-19T19:06:56.152Z,99.90
2022-11-19T19:09:23.550Z,99.90
2022-11-19T19:12:13.559Z,99.90
2022-11-19T19:14:42.777Z,99.90
2022-11-19T19:17:10.225Z,99.90
2022-11-19T19:19:38.029Z,99.90
2022-11-19T19:22:05.961Z,99.90
2022-11-19T19:24:33.183Z,99.90
2022-11-19T19:27:01.480Z,99.90
2022-11-19T19:29:28.564Z,99.90
2022-11-19T19:31:55.671Z,99.90
2022-11-19T19:34:22.774Z,99.90
2022-11-19T19:36:53.361Z,99.90
2022-11-19T19:39:21.489Z,99.90
2022-11-19T19:41:49.448Z,99.90
2022-11-19T19:44:17.160Z,99.90
2022-11-19T19:46:48.469Z,99.90
2022-11-19T19:49:15.915Z,99.90
2022-11-19T19:51:43.228Z,99.90
2022-11-19T19:54:10.323Z,99.90
2022-11-19T19:56:37.484Z,99.90
2022-11-19T19:59:04.586Z,99.90
2022-11-19T20:01:34.229Z,99.90
2022-11-19T20:04:06.600Z,99.90
2022-11-19T20:06:35.474Z,99.90
2022-11-19T20:09:09.006Z,99.90
2022-11-19T20:11:37.198Z,99.90
2022-11-19T20:14:04.970Z,99.90
2022-11-19T20:16:32.983Z,99.90
2022-11-19T20:19:01.082Z,99.90
2022-11-19T20:21:34.042Z,99.90
2022-11-19T20:24:02.515Z,99.90
2022-11-19T20:26:31.977Z,99.90
2022-11-19T20:29:04.245Z,99.90
2022-11-19T20:31:32.765Z,99.90
2022-11-19T20:34:02.039Z,99.90
2022-11-19T20:36:30.915Z,99.90
2022-11-19T20:38:57.971Z,99.90
2022-11-19T20:41:45.586Z,99.90
2022-11-19T20:44:25.937Z,99.90
2022-11-19T20:47:03.275Z,99.90
2022-11-19T20:49:33.210Z,99.90
2022-11-19T20:52:00.337Z,99.90
2022-11-19T20:54:28.588Z,99.90
2022-11-19T20:56:56.606Z,99.90
2022-11-19T20:59:25.439Z,99.90
2022-11-19T21:01:54.161Z,99.90
2022-11-19T21:04:22.450Z,99.90
2022-11-19T21:06:50.132Z,99.90
2022-11-19T21:09:19.706Z,99.90
2022-11-19T21:11:47.585Z,99.90
2022-11-19T21:14:14.700Z,99.90
2022-11-19T21:16:41.812Z,99.90
2022-11-19T21:19:10.486Z,99.90
2022-11-19T21:21:37.973Z,99.90
2022-11-19T21:24:05.694Z,99.90
2022-11-19T21:26:33.163Z,99.90
2022-11-19T21:29:00.834Z,99.90
2022-11-19T21:31:39.884Z,99.90
2022-11-19T21:34:18.001Z,99.90
2022-11-19T21:36:47.128Z,99.90
2022-11-19T21:39:16.547Z,99.90
2022-11-19T21:41:44.407Z,99.90
2022-11-19T21:44:14.269Z,99.90
2022-11-19T21:46:43.772Z,99.90
2022-11-19T21:49:10.825Z,99.90
2022-11-19T21:51:37.952Z,99.90
2022-11-19T21:54:05.257Z,99.90
2022-11-19T21:56:38.223Z,99.90
2022-11-19T21:59:06.698Z,99.90
2022-11-19T22:01:33.783Z,99.90
2022-11-19T22:04:00.829Z,99.90
2022-11-19T22:06:27.995Z,99.90
2022-11-19T22:08:55.460Z,99.90
2022-11-19T22:11:32.181Z,99.90
2022-11-19T22:14:08.001Z,99.90
2022-11-19T22:16:37.896Z,99.90
2022-11-19T22:19:05.791Z,99.90
2022-11-19T22:21:33.148Z,99.90
2022-11-19T22:24:00.496Z,99.90
2022-11-19T22:26:27.721Z,99.90
2022-11-19T22:28:55.402Z,99.90
2022-11-19T22:31:23.107Z,99.90
2022-11-19T22:33:51.912Z,99.90
2022-11-19T22:36:20.500Z,99.90
2022-11-19T22:38:47.702Z,99.90
2022-11-19T22:41:20.233Z,99.90
2022-11-19T22:43:47.594Z,99.90
2022-11-19T22:46:15.141Z,99.90
2022-11-19T22:48:42.483Z,99.90
2022-11-19T22:51:15.919Z,99.90
2022-11-19T22:53:43.911Z,99.90
2022-11-19T22:56:13.376Z,99.90
2022-11-19T22:58:40.771Z,99.90
2022-11-19T23:01:15.288Z,99.90
2022-11-19T23:03:42.469Z,99.90
2022-11-19T23:06:09.543Z,99.90
2022-11-19T23:08:37.516Z,99.90
2022-11-19T23:11:06.283Z,99.90
2022-11-19T23:13:39.167Z,99.90
2022-11-19T23:16:18.302Z,99.90
2022-11-19T23:18:51.200Z,99.90
2022-11-19T23:21:26.892Z,99.90
2022-11-19T23:23:54.275Z,99.90
2022-11-19T23:26:23.726Z,99.90
2022-11-19T23:28:51.964Z,99.90
2022-11-19T23:31:27.125Z,99.90
2022-11-19T23:33:59.086Z,99.90
2022-11-19T23:36:32.638Z,99.90
2022-11-19T23:39:00.076Z,99.90
2022-11-19T23:41:27.798Z,99.90
2022-11-19T23:43:56.170Z,99.90
2022-11-19T23:46:34.052Z,99.90
2022-11-19T23:49:02.459Z,99.90
2022-11-19T23:51:40.327Z,99.90
2022-11-19T23:54:07.447Z,99.90
2022-11-19T23:56:36.387Z,99.90
2022-11-19T23:59:04.863Z,99.90
